• Join FlightAware (Why Join?)
  • Login
  • US Flag 
Gobble Gobble! 
11:21PM EST


 

Airport Tracker/Info


-or-


 

Live Flight TrackerFlight Track Log ✈ ASQ4177 ✈ 28-Aug-2014 ✈ KBTR - KIAH

Flight Track Log - Related Links

Times and Time Zones

All times are in EDT time to prevent confusion due to time zone crossing. See the ASQ4177 flight status page for this flight to view local times or setup timezone preferences in your user account.

Time Position Orientation Groundspeed Altitude Reporting Facility
EDT Latitude Longitude Course Direction KTS MPH feet Rate Location/Type
08:01PM 30.4939 -91.4872 221° Southwest  Level Estimated
08:01PM 30.4542 -91.1992 262° West 262 302 4,800  Level Houston Center
08:02PM 30.4807 -91.5996 263° West  Level Estimated
08:02PM 30.4447 -91.2933 263° West 271 312 7,200  Level Houston Center
08:03PM 30.4674 -91.7120 254° West  Level Estimated
08:03PM 30.4067 -91.3703 240° Southwest 283 326 9,300  Level Houston Center
08:04PM 30.3706 -91.7617 227° Southwest  Level FlightAware Approximate
08:04PM 30.3622 -91.4544 239° Southwest 285 328 11,000  Level Houston Center
08:05PM 30.3057 -91.8389 226° Southwest  Level FlightAware Approximate
08:05PM 30.3119 -91.5489 238° Southwest 318 366 11,700  Level Houston Center
08:06PM 30.2617 -91.6444 239° Southwest 348 400 12,700 960 Climbing Houston Center
08:07PM 30.2061 -91.7497 239° Southwest 352 405 13,800 1,200 Climbing Houston Center
08:08PM 30.1542 -91.8472 238° Southwest 358 412 15,300 1,380 Climbing Houston Center
08:09PM 30.1000 -91.9481 238° Southwest 345 397 16,700 1,080 Climbing Houston Center
08:10PM 30.0492 -92.0431 238° Southwest 347 399 17,600 900 Climbing Houston Center
08:11PM 29.9933 -92.1478 238° Southwest 352 405 18,600 840 Climbing Houston Center
08:12PM 29.9411 -92.2447 238° Southwest 356 410 19,400 660 Climbing Houston Center
08:13PM 29.8825 -92.3539 238° Southwest 372 428 20,000 720 Climbing Houston Center
08:14PM 29.8261 -92.4583 238° Southwest 385 443 20,900 840 Climbing Houston Center
08:15PM 29.7644 -92.5719 238° Southwest 386 444 21,800 480 Climbing Houston Center
08:16PM 29.7072 -92.6767 238° Southwest 388 447 22,000 60 Climbing Houston Center
08:17PM 29.6483 -92.7811 237° Southwest 390 449 22,000  Level Houston Center
08:18PM 29.5894 -92.8892 238° Southwest 396 456 22,000  Level Houston Center
08:19PM 29.5733 -93.0136 262° West 401 461 22,000  Level Houston Center
08:20PM 29.5686 -93.1417 268° West 401 461 22,000  Level Houston Center
08:21PM 29.5636 -93.3064 268° West 420 483 22,000  Level Houston Center
08:23PM 29.5597 -93.4472 268° West 433 498 22,000  Level Houston Center
08:24PM 29.5547 -93.5894 268° West 439 505 22,000 -420 Level Houston Center
08:25PM 29.5503 -93.7314 268° West 440 506 21,200 -1,620 Descending Houston Center
08:25PM 29.5453 -93.8531 267° West 442 509 19,100 -2,460 Descending Houston Center
08:26PM 29.5453 -93.8722 270° West 441 507 18,700 -2,340 Descending Houston Center
08:26PM 29.5417 -93.9186 265° West 436 502 17,900 -2,280 Descending Houston Center
08:27PM 29.5414 -94.0056 270° West 427 491 16,400 -2,100 Descending Houston Center
08:27PM 29.5378 -94.0658 266° West 399 459 15,600 -1,800 Descending Houston Center
08:28PM 29.5358 -94.1311 268° West 404 465 14,600 -1,980 Descending Houston Center
08:28PM 29.5319 -94.1964 266° West 388 447 13,600 -2,280 Descending Houston Center
08:29PM 29.5314 -94.2550 269° West 381 438 12,300 -1,800 Descending Houston Center
08:29PM 29.5314 -94.2950 270° West 341 392 12,000 -300 Descending Houston Center
08:30PM 29.5650 -94.3767 295° West 347 399 12,000 -300 Level Houston Center
08:30PM 29.5761 -94.4069 293° West 348 400 11,700 -1,260 Descending Houston Center
08:31PM 29.6072 -94.4772 297° West 348 400 10,700 -1,500 Descending Houston Center
08:31PM 29.6203 -94.5119 293° West 343 395 10,200 -720 Descending Houston Center
08:32PM 29.6486 -94.5742 298° West 343 395 10,000 -240 Descending Houston Center
08:32PM 29.6633 -94.6097 295° West 335 386 10,000 -720 Level Houston Center
08:33PM 29.6894 -94.6681 297° West 333 383 9,300 -1,320 Descending Houston Center
08:33PM 29.7014 -94.6989 294° West 295 339 8,700 -1,800 Descending Houston Center
08:34PM 29.7242 -94.7506 297° West 293 337 7,500 -1,920 Descending Houston Center
08:34PM 29.7369 -94.7833 294° West 290 334 6,800 -1,380 Descending Houston Center
08:35PM 29.7583 -94.8311 297° West 285 328 6,100 -840 Descending Houston Center
08:35PM 29.7747 -94.8703 296° West 285 328 6,000 -120 Descending Houston Center
08:36PM 29.7994 -94.9303 295° West 285 328 6,000  Level Houston Center
08:36PM 29.8078 -94.9528 293° West 284 327 6,000  Level Houston Center
08:37PM 29.8339 -95.0108 297° West 285 328 6,000  Level Houston Center
08:37PM 29.8428 -95.0350 293° West 285 328 6,000  Level Houston Center
08:38PM 29.8686 -95.0925 297° West 285 328 6,000  Level Houston Center
08:38PM 29.8764 -95.1250 285° West 287 330 6,000  Level Houston Center
08:39PM 29.8883 -95.1783 284° West 281 323 6,000  Level Houston Center
08:39PM 29.8906 -95.2100 275° West 248 285 6,000  Level Houston Center
08:40PM 29.8911 -95.2556 271° West 247 284 6,000 60 Level Houston Center
08:40PM 29.8922 -95.2964 272° West 242 278 6,100  Climbing Houston Center
08:41PM 29.8911 -95.3469 269° West 242 278 6,000 -120 Descending Houston Center
08:41PM 29.8922 -95.3639 274° West 242 278 6,000  Level Houston Center
08:42PM 29.8911 -95.4436 269° West 239 275 6,000  Level Houston Center
08:43PM 29.8925 -95.5000 272° West 241 277 6,000 -180 Level Houston Center
08:43PM 29.8925 -95.5303 270° West 238 274 5,800 -900 Descending Houston Center
08:44PM 29.8931 -95.5764 271° West 241 277 5,100 -1,140 Descending Houston Center
08:44PM 29.8994 -95.6064 284° West 248 285 4,700 -1,020 Descending Houston Center
08:45PM 29.9378 -95.6125 352° North 243 280 4,100 -720 Descending Houston Center
08:45PM 29.9631 -95.6133 358° North 220 253 4,000 -540 Descending Houston Center
08:46PM 29.9928 -95.5689 52° Northeast 198 228 3,500 -660 Descending Houston Center
08:47PM 29.9922 -95.5169 91° East 188 216 2,800 -840 Descending Houston Center
08:48PM 29.9936 -95.5086 79° East 166 191 2,600 -900 Descending Houston Center
08:48PM 29.9933 -95.4633 90° East 177 204 1,900 -900 Descending Houston Center
08:49PM 29.9925 -95.4508 94° East 164 189 1,700 -720 Descending Houston Center
08:49PM 29.9936 -95.4161 88° East 163 188 1,200 -720 Descending Houston Center
08:50PM 29.9928 -95.4072 96° East 132 152 1,000 -720 Descending Houston Center
08:50PM 29.9939 -95.3750 88° East 145 167 500 -600 Descending Houston Center
08:51PM 29.9931 -95.3664 96° East 126 145 400 -120 Descending Houston Center
08:51PM 29.9939 -95.3319 88° East 141 162 400  Level Houston Center